sensor_id;sensor_type;location;lat;lon;timestamp;P1;durP1;ratioP1;P2;durP2;ratioP2
2772;SDS011;1394;47.044;15.744;2023-06-14T00:00:44;24.30;;;1.23;;
2772;SDS011;1394;47.044;15.744;2023-06-14T00:03:11;26.10;;;1.50;;
2772;SDS011;1394;47.044;15.744;2023-06-14T00:05:42;24.63;;;1.30;;
2772;SDS011;1394;47.044;15.744;2023-06-14T00:08:12;24.40;;;1.53;;
2772;SDS011;1394;47.044;15.744;2023-06-14T00:10:39;24.50;;;1.30;;
2772;SDS011;1394;47.044;15.744;2023-06-14T00:13:10;24.50;;;1.37;;
2772;SDS011;1394;47.044;15.744;2023-06-14T00:15:39;24.37;;;1.27;;
2772;SDS011;1394;47.044;15.744;2023-06-14T00:18:07;25.97;;;1.77;;
2772;SDS011;1394;47.044;15.744;2023-06-14T00:20:37;24.40;;;1.27;;
2772;SDS011;1394;47.044;15.744;2023-06-14T00:23:04;25.17;;;1.37;;
2772;SDS011;1394;47.044;15.744;2023-06-14T00:25:31;24.47;;;1.20;;
2772;SDS011;1394;47.044;15.744;2023-06-14T00:27:58;24.67;;;1.50;;
2772;SDS011;1394;47.044;15.744;2023-06-14T00:30:27;24.87;;;1.10;;
2772;SDS011;1394;47.044;15.744;2023-06-14T00:32:55;24.30;;;1.20;;
2772;SDS011;1394;47.044;15.744;2023-06-14T00:35:25;25.13;;;1.30;;
2772;SDS011;1394;47.044;15.744;2023-06-14T00:37:52;24.70;;;1.20;;
2772;SDS011;1394;47.044;15.744;2023-06-14T00:40:20;24.67;;;1.30;;
2772;SDS011;1394;47.044;15.744;2023-06-14T00:42:47;24.73;;;1.23;;
2772;SDS011;1394;47.044;15.744;2023-06-14T00:45:14;24.50;;;1.10;;
2772;SDS011;1394;47.044;15.744;2023-06-14T00:47:43;24.33;;;1.10;;
2772;SDS011;1394;47.044;15.744;2023-06-14T00:50:12;24.63;;;1.13;;
2772;SDS011;1394;47.044;15.744;2023-06-14T00:52:39;25.00;;;1.20;;
2772;SDS011;1394;47.044;15.744;2023-06-14T00:55:07;24.80;;;1.30;;
2772;SDS011;1394;47.044;15.744;2023-06-14T00:57:39;25.17;;;1.40;;
2772;SDS011;1394;47.044;15.744;2023-06-14T01:00:07;24.20;;;1.07;;
2772;SDS011;1394;47.044;15.744;2023-06-14T01:02:35;24.40;;;1.20;;
2772;SDS011;1394;47.044;15.744;2023-06-14T01:05:05;24.60;;;1.30;;
2772;SDS011;1394;47.044;15.744;2023-06-14T01:07:35;24.40;;;1.20;;
2772;SDS011;1394;47.044;15.744;2023-06-14T01:10:14;26.00;;;1.87;;
2772;SDS011;1394;47.044;15.744;2023-06-14T01:12:47;24.50;;;1.20;;
2772;SDS011;1394;47.044;15.744;2023-06-14T01:15:17;24.40;;;1.40;;
2772;SDS011;1394;47.044;15.744;2023-06-14T01:17:45;24.80;;;1.30;;
2772;SDS011;1394;47.044;15.744;2023-06-14T01:20:14;24.50;;;1.37;;
2772;SDS011;1394;47.044;15.744;2023-06-14T01:22:49;24.30;;;1.30;;
2772;SDS011;1394;47.044;15.744;2023-06-14T01:25:17;24.80;;;1.70;;
2772;SDS011;1394;47.044;15.744;2023-06-14T01:27:48;24.93;;;1.00;;
2772;SDS011;1394;47.044;15.744;2023-06-14T01:30:16;24.70;;;1.50;;
2772;SDS011;1394;47.044;15.744;2023-06-14T01:32:46;24.60;;;1.33;;
2772;SDS011;1394;47.044;15.744;2023-06-14T01:35:13;24.30;;;1.40;;
2772;SDS011;1394;47.044;15.744;2023-06-14T01:37:41;24.30;;;1.20;;
2772;SDS011;1394;47.044;15.744;2023-06-14T01:40:12;26.30;;;1.40;;
2772;SDS011;1394;47.044;15.744;2023-06-14T01:42:41;24.20;;;1.30;;
2772;SDS011;1394;47.044;15.744;2023-06-14T01:45:09;24.60;;;1.30;;
2772;SDS011;1394;47.044;15.744;2023-06-14T01:47:37;24.53;;;1.40;;
2772;SDS011;1394;47.044;15.744;2023-06-14T01:50:04;25.23;;;1.40;;
2772;SDS011;1394;47.044;15.744;2023-06-14T01:52:32;24.63;;;1.50;;
2772;SDS011;1394;47.044;15.744;2023-06-14T01:54:59;24.20;;;1.30;;
2772;SDS011;1394;47.044;15.744;2023-06-14T01:57:29;25.40;;;1.40;;
2772;SDS011;1394;47.044;15.744;2023-06-14T01:59:56;24.30;;;1.20;;
2772;SDS011;1394;47.044;15.744;2023-06-14T02:02:26;24.97;;;1.40;;
2772;SDS011;1394;47.044;15.744;2023-06-14T02:04:53;24.80;;;1.10;;
2772;SDS011;1394;47.044;15.744;2023-06-14T02:07:22;24.70;;;1.40;;
2772;SDS011;1394;47.044;15.744;2023-06-14T02:09:50;25.10;;;1.53;;
2772;SDS011;1394;47.044;15.744;2023-06-14T02:12:17;25.20;;;1.60;;
2772;SDS011;1394;47.044;15.744;2023-06-14T02:14:46;25.00;;;1.53;;
2772;SDS011;1394;47.044;15.744;2023-06-14T02:17:13;24.33;;;1.23;;
2772;SDS011;1394;47.044;15.744;2023-06-14T02:19:41;25.67;;;1.20;;
2772;SDS011;1394;47.044;15.744;2023-06-14T02:22:08;26.53;;;1.53;;
2772;SDS011;1394;47.044;15.744;2023-06-14T02:24:35;24.97;;;1.50;;
2772;SDS011;1394;47.044;15.744;2023-06-14T02:27:04;24.10;;;1.20;;
2772;SDS011;1394;47.044;15.744;2023-06-14T02:29:31;24.33;;;1.17;;
2772;SDS011;1394;47.044;15.744;2023-06-14T02:32:00;24.30;;;1.13;;
2772;SDS011;1394;47.044;15.744;2023-06-14T02:34:27;24.80;;;1.60;;
2772;SDS011;1394;47.044;15.744;2023-06-14T02:36:56;24.30;;;1.40;;
2772;SDS011;1394;47.044;15.744;2023-06-14T02:39:23;24.33;;;1.40;;
2772;SDS011;1394;47.044;15.744;2023-06-14T02:41:51;24.23;;;1.40;;
2772;SDS011;1394;47.044;15.744;2023-06-14T02:44:18;26.00;;;1.80;;
2772;SDS011;1394;47.044;15.744;2023-06-14T02:46:47;24.90;;;1.43;;
2772;SDS011;1394;47.044;15.744;2023-06-14T02:49:15;24.20;;;1.40;;
2772;SDS011;1394;47.044;15.744;2023-06-14T02:51:42;24.23;;;1.17;;
2772;SDS011;1394;47.044;15.744;2023-06-14T02:54:11;24.70;;;1.33;;
2772;SDS011;1394;47.044;15.744;2023-06-14T02:56:38;24.50;;;1.30;;
2772;SDS011;1394;47.044;15.744;2023-06-14T02:59:07;24.87;;;1.47;;
2772;SDS011;1394;47.044;15.744;2023-06-14T03:01:36;24.60;;;1.40;;
2772;SDS011;1394;47.044;15.744;2023-06-14T03:04:04;24.60;;;2.10;;
2772;SDS011;1394;47.044;15.744;2023-06-14T03:06:32;25.13;;;1.70;;
2772;SDS011;1394;47.044;15.744;2023-06-14T03:09:00;24.77;;;1.90;;
2772;SDS011;1394;47.044;15.744;2023-06-14T03:11:29;24.67;;;1.47;;
2772;SDS011;1394;47.044;15.744;2023-06-14T03:13:56;24.67;;;1.20;;
2772;SDS011;1394;47.044;15.744;2023-06-14T03:16:25;24.57;;;1.70;;
2772;SDS011;1394;47.044;15.744;2023-06-14T03:18:55;24.20;;;1.10;;
2772;SDS011;1394;47.044;15.744;2023-06-14T03:21:22;24.57;;;1.50;;
2772;SDS011;1394;47.044;15.744;2023-06-14T03:23:52;26.10;;;1.53;;
2772;SDS011;1394;47.044;15.744;2023-06-14T03:26:19;24.27;;;1.37;;
2772;SDS011;1394;47.044;15.744;2023-06-14T03:28:50;24.40;;;1.47;;
2772;SDS011;1394;47.044;15.744;2023-06-14T03:31:24;24.10;;;1.40;;
2772;SDS011;1394;47.044;15.744;2023-06-14T03:33:52;24.90;;;1.60;;
2772;SDS011;1394;47.044;15.744;2023-06-14T03:36:19;24.60;;;1.40;;
2772;SDS011;1394;47.044;15.744;2023-06-14T03:38:47;24.23;;;1.50;;
2772;SDS011;1394;47.044;15.744;2023-06-14T03:41:17;26.43;;;1.30;;
2772;SDS011;1394;47.044;15.744;2023-06-14T03:43:45;24.67;;;1.70;;
2772;SDS011;1394;47.044;15.744;2023-06-14T03:46:12;24.80;;;1.30;;
2772;SDS011;1394;47.044;15.744;2023-06-14T03:48:46;24.47;;;1.40;;
2772;SDS011;1394;47.044;15.744;2023-06-14T03:51:13;24.20;;;1.47;;
2772;SDS011;1394;47.044;15.744;2023-06-14T03:53:41;24.73;;;1.70;;
2772;SDS011;1394;47.044;15.744;2023-06-14T03:56:08;24.57;;;1.60;;
2772;SDS011;1394;47.044;15.744;2023-06-14T03:58:38;24.80;;;1.90;;
2772;SDS011;1394;47.044;15.744;2023-06-14T04:01:06;24.70;;;1.40;;
2772;SDS011;1394;47.044;15.744;2023-06-14T04:03:33;24.30;;;1.60;;
2772;SDS011;1394;47.044;15.744;2023-06-14T04:06:00;24.53;;;1.50;;
2772;SDS011;1394;47.044;15.744;2023-06-14T04:08:28;24.33;;;1.67;;
2772;SDS011;1394;47.044;15.744;2023-06-14T04:10:55;24.40;;;1.60;;
2772;SDS011;1394;47.044;15.744;2023-06-14T04:13:22;24.27;;;1.67;;
2772;SDS011;1394;47.044;15.744;2023-06-14T04:15:52;25.30;;;1.40;;
2772;SDS011;1394;47.044;15.744;2023-06-14T04:18:21;24.53;;;1.70;;
2772;SDS011;1394;47.044;15.744;2023-06-14T04:20:49;24.10;;;1.40;;
2772;SDS011;1394;47.044;15.744;2023-06-14T04:23:18;24.47;;;1.63;;
2772;SDS011;1394;47.044;15.744;2023-06-14T04:25:48;24.40;;;1.40;;
2772;SDS011;1394;47.044;15.744;2023-06-14T04:28:18;24.37;;;1.33;;
2772;SDS011;1394;47.044;15.744;2023-06-14T04:30:45;24.97;;;1.40;;
2772;SDS011;1394;47.044;15.744;2023-06-14T04:33:14;24.93;;;1.30;;
2772;SDS011;1394;47.044;15.744;2023-06-14T04:35:42;24.53;;;1.60;;
2772;SDS011;1394;47.044;15.744;2023-06-14T04:38:12;25.20;;;1.50;;
2772;SDS011;1394;47.044;15.744;2023-06-14T04:40:41;24.17;;;1.27;;
2772;SDS011;1394;47.044;15.744;2023-06-14T04:43:09;24.50;;;1.47;;
2772;SDS011;1394;47.044;15.744;2023-06-14T04:45:37;24.40;;;1.67;;
2772;SDS011;1394;47.044;15.744;2023-06-14T04:48:05;24.40;;;1.40;;
2772;SDS011;1394;47.044;15.744;2023-06-14T04:50:34;24.47;;;1.30;;
2772;SDS011;1394;47.044;15.744;2023-06-14T04:53:02;24.30;;;1.40;;
2772;SDS011;1394;47.044;15.744;2023-06-14T04:55:32;24.40;;;1.37;;
2772;SDS011;1394;47.044;15.744;2023-06-14T04:58:02;24.53;;;1.47;;
2772;SDS011;1394;47.044;15.744;2023-06-14T05:00:30;24.60;;;1.80;;
2772;SDS011;1394;47.044;15.744;2023-06-14T05:02:58;26.60;;;1.90;;
2772;SDS011;1394;47.044;15.744;2023-06-14T05:05:26;24.40;;;1.60;;
2772;SDS011;1394;47.044;15.744;2023-06-14T05:07:55;25.20;;;1.70;;
2772;SDS011;1394;47.044;15.744;2023-06-14T05:10:22;24.70;;;1.50;;
2772;SDS011;1394;47.044;15.744;2023-06-14T05:12:49;25.00;;;1.60;;
2772;SDS011;1394;47.044;15.744;2023-06-14T05:15:17;24.30;;;1.50;;
2772;SDS011;1394;47.044;15.744;2023-06-14T05:17:45;24.87;;;1.80;;
2772;SDS011;1394;47.044;15.744;2023-06-14T05:20:18;24.57;;;1.80;;
2772;SDS011;1394;47.044;15.744;2023-06-14T05:22:45;24.30;;;1.43;;
2772;SDS011;1394;47.044;15.744;2023-06-14T05:25:16;24.77;;;1.60;;
2772;SDS011;1394;47.044;15.744;2023-06-14T05:27:43;24.63;;;1.50;;
2772;SDS011;1394;47.044;15.744;2023-06-14T05:30:11;24.30;;;1.70;;
2772;SDS011;1394;47.044;15.744;2023-06-14T05:32:39;25.00;;;1.63;;
2772;SDS011;1394;47.044;15.744;2023-06-14T05:35:08;24.47;;;1.83;;
2772;SDS011;1394;47.044;15.744;2023-06-14T05:37:36;24.30;;;1.60;;
2772;SDS011;1394;47.044;15.744;2023-06-14T05:40:04;26.63;;;1.60;;
2772;SDS011;1394;47.044;15.744;2023-06-14T05:42:33;24.83;;;1.80;;
2772;SDS011;1394;47.044;15.744;2023-06-14T05:45:00;26.07;;;2.13;;
2772;SDS011;1394;47.044;15.744;2023-06-14T05:47:28;24.17;;;1.63;;
2772;SDS011;1394;47.044;15.744;2023-06-14T05:49:56;24.50;;;1.80;;
2772;SDS011;1394;47.044;15.744;2023-06-14T05:52:23;24.87;;;1.90;;
2772;SDS011;1394;47.044;15.744;2023-06-14T05:54:51;25.13;;;2.03;;
2772;SDS011;1394;47.044;15.744;2023-06-14T05:57:19;24.20;;;1.80;;
2772;SDS011;1394;47.044;15.744;2023-06-14T05:59:48;24.37;;;1.70;;
2772;SDS011;1394;47.044;15.744;2023-06-14T06:02:16;25.13;;;2.30;;
2772;SDS011;1394;47.044;15.744;2023-06-14T06:04:46;24.60;;;2.00;;
2772;SDS011;1394;47.044;15.744;2023-06-14T06:07:13;24.57;;;1.53;;
2772;SDS011;1394;47.044;15.744;2023-06-14T06:09:40;24.53;;;1.70;;
2772;SDS011;1394;47.044;15.744;2023-06-14T06:12:10;24.60;;;1.53;;
2772;SDS011;1394;47.044;15.744;2023-06-14T06:14:37;24.50;;;1.50;;
2772;SDS011;1394;47.044;15.744;2023-06-14T06:17:07;25.93;;;1.70;;
2772;SDS011;1394;47.044;15.744;2023-06-14T06:19:34;24.80;;;1.63;;
2772;SDS011;1394;47.044;15.744;2023-06-14T06:22:02;24.80;;;1.57;;
2772;SDS011;1394;47.044;15.744;2023-06-14T06:24:31;25.03;;;1.70;;
2772;SDS011;1394;47.044;15.744;2023-06-14T06:26:59;24.60;;;1.83;;
2772;SDS011;1394;47.044;15.744;2023-06-14T06:29:27;24.37;;;1.67;;
2772;SDS011;1394;47.044;15.744;2023-06-14T06:31:55;24.27;;;1.70;;
2772;SDS011;1394;47.044;15.744;2023-06-14T06:34:23;25.40;;;1.70;;
2772;SDS011;1394;47.044;15.744;2023-06-14T06:36:50;24.40;;;1.50;;
2772;SDS011;1394;47.044;15.744;2023-06-14T06:39:20;24.47;;;1.60;;
2772;SDS011;1394;47.044;15.744;2023-06-14T06:41:48;24.67;;;1.57;;
2772;SDS011;1394;47.044;15.744;2023-06-14T06:44:16;24.30;;;1.40;;
2772;SDS011;1394;47.044;15.744;2023-06-14T06:46:43;24.40;;;1.60;;
2772;SDS011;1394;47.044;15.744;2023-06-14T06:49:10;25.33;;;1.57;;
2772;SDS011;1394;47.044;15.744;2023-06-14T06:51:41;24.63;;;1.50;;
2772;SDS011;1394;47.044;15.744;2023-06-14T06:54:10;24.30;;;1.47;;
2772;SDS011;1394;47.044;15.744;2023-06-14T06:56:38;24.87;;;1.93;;
2772;SDS011;1394;47.044;15.744;2023-06-14T06:59:05;24.23;;;1.63;;
2772;SDS011;1394;47.044;15.744;2023-06-14T07:01:33;24.67;;;1.67;;
2772;SDS011;1394;47.044;15.744;2023-06-14T07:04:01;24.80;;;1.90;;
2772;SDS011;1394;47.044;15.744;2023-06-14T07:06:29;24.70;;;1.80;;
2772;SDS011;1394;47.044;15.744;2023-06-14T07:08:58;26.53;;;1.80;;
2772;SDS011;1394;47.044;15.744;2023-06-14T07:11:26;24.37;;;1.63;;
2772;SDS011;1394;47.044;15.744;2023-06-14T07:13:53;24.87;;;1.60;;
2772;SDS011;1394;47.044;15.744;2023-06-14T07:16:21;24.43;;;1.50;;
2772;SDS011;1394;47.044;15.744;2023-06-14T07:18:50;24.67;;;1.70;;
2772;SDS011;1394;47.044;15.744;2023-06-14T07:21:20;24.13;;;1.60;;
2772;SDS011;1394;47.044;15.744;2023-06-14T07:23:50;24.80;;;1.63;;
2772;SDS011;1394;47.044;15.744;2023-06-14T07:26:21;24.47;;;1.50;;
2772;SDS011;1394;47.044;15.744;2023-06-14T07:28:49;24.17;;;1.47;;
2772;SDS011;1394;47.044;15.744;2023-06-14T07:31:17;24.40;;;1.47;;
2772;SDS011;1394;47.044;15.744;2023-06-14T07:33:45;24.20;;;1.47;;
2772;SDS011;1394;47.044;15.744;2023-06-14T07:36:12;24.20;;;1.40;;
2772;SDS011;1394;47.044;15.744;2023-06-14T07:38:39;24.10;;;1.37;;
2772;SDS011;1394;47.044;15.744;2023-06-14T07:41:06;25.20;;;1.57;;
2772;SDS011;1394;47.044;15.744;2023-06-14T07:43:37;24.10;;;1.30;;
2772;SDS011;1394;47.044;15.744;2023-06-14T07:46:04;24.57;;;1.60;;
2772;SDS011;1394;47.044;15.744;2023-06-14T07:48:32;24.27;;;1.40;;
2772;SDS011;1394;47.044;15.744;2023-06-14T07:51:01;25.17;;;1.90;;
2772;SDS011;1394;47.044;15.744;2023-06-14T07:53:29;24.37;;;1.60;;
2772;SDS011;1394;47.044;15.744;2023-06-14T07:55:58;24.13;;;1.40;;
2772;SDS011;1394;47.044;15.744;2023-06-14T07:58:27;24.10;;;1.37;;
2772;SDS011;1394;47.044;15.744;2023-06-14T08:01:10;24.87;;;1.93;;
2772;SDS011;1394;47.044;15.744;2023-06-14T08:03:51;24.57;;;2.20;;
2772;SDS011;1394;47.044;15.744;2023-06-14T08:06:42;24.67;;;1.73;;
2772;SDS011;1394;47.044;15.744;2023-06-14T08:09:25;24.67;;;1.60;;
2772;SDS011;1394;47.044;15.744;2023-06-14T08:11:56;24.73;;;2.10;;
2772;SDS011;1394;47.044;15.744;2023-06-14T08:14:25;24.80;;;1.70;;
2772;SDS011;1394;47.044;15.744;2023-06-14T08:16:55;24.30;;;1.80;;
2772;SDS011;1394;47.044;15.744;2023-06-14T08:22:35;24.70;;;1.70;;
2772;SDS011;1394;47.044;15.744;2023-06-14T08:28:36;25.13;;;2.03;;
2772;SDS011;1394;47.044;15.744;2023-06-14T08:31:40;24.37;;;1.80;;
2772;SDS011;1394;47.044;15.744;2023-06-14T08:40:45;24.37;;;1.40;;
2772;SDS011;1394;47.044;15.744;2023-06-14T08:43:15;24.30;;;1.50;;
2772;SDS011;1394;47.044;15.744;2023-06-14T08:46:00;24.60;;;1.90;;
2772;SDS011;1394;47.044;15.744;2023-06-14T08:51:33;24.50;;;1.80;;
2772;SDS011;1394;47.044;15.744;2023-06-14T08:54:25;24.60;;;2.00;;
2772;SDS011;1394;47.044;15.744;2023-06-14T09:06:52;24.47;;;1.60;;
2772;SDS011;1394;47.044;15.744;2023-06-14T09:09:43;24.57;;;1.57;;
2772;SDS011;1394;47.044;15.744;2023-06-14T09:15:19;24.27;;;1.50;;
2772;SDS011;1394;47.044;15.744;2023-06-14T09:17:57;24.93;;;1.70;;
2772;SDS011;1394;47.044;15.744;2023-06-14T09:20:25;24.10;;;1.60;;
2772;SDS011;1394;47.044;15.744;2023-06-14T09:25:50;24.60;;;1.77;;
2772;SDS011;1394;47.044;15.744;2023-06-14T09:28:18;24.37;;;1.90;;
2772;SDS011;1394;47.044;15.744;2023-06-14T09:30:47;24.47;;;1.90;;
2772;SDS011;1394;47.044;15.744;2023-06-14T09:33:16;24.20;;;2.00;;
2772;SDS011;1394;47.044;15.744;2023-06-14T09:35:45;24.53;;;1.80;;
2772;SDS011;1394;47.044;15.744;2023-06-14T09:38:12;24.30;;;1.90;;
2772;SDS011;1394;47.044;15.744;2023-06-14T09:40:41;24.40;;;1.80;;
2772;SDS011;1394;47.044;15.744;2023-06-14T09:43:10;24.90;;;2.27;;
2772;SDS011;1394;47.044;15.744;2023-06-14T09:45:38;24.97;;;2.30;;
2772;SDS011;1394;47.044;15.744;2023-06-14T09:48:06;24.23;;;1.90;;
2772;SDS011;1394;47.044;15.744;2023-06-14T09:50:34;24.80;;;2.17;;
2772;SDS011;1394;47.044;15.744;2023-06-14T09:53:06;24.93;;;1.63;;
2772;SDS011;1394;47.044;15.744;2023-06-14T09:55:34;24.40;;;2.10;;
2772;SDS011;1394;47.044;15.744;2023-06-14T09:58:03;24.17;;;1.80;;
2772;SDS011;1394;47.044;15.744;2023-06-14T10:00:33;24.63;;;1.80;;
2772;SDS011;1394;47.044;15.744;2023-06-14T10:03:03;24.50;;;1.80;;
2772;SDS011;1394;47.044;15.744;2023-06-14T10:05:32;24.20;;;1.50;;
2772;SDS011;1394;47.044;15.744;2023-06-14T10:08:03;24.20;;;1.60;;
2772;SDS011;1394;47.044;15.744;2023-06-14T10:10:32;24.30;;;1.90;;
2772;SDS011;1394;47.044;15.744;2023-06-14T10:13:01;24.67;;;1.40;;
2772;SDS011;1394;47.044;15.744;2023-06-14T10:15:28;24.50;;;1.90;;
2772;SDS011;1394;47.044;15.744;2023-06-14T10:18:01;24.37;;;1.70;;
2772;SDS011;1394;47.044;15.744;2023-06-14T10:20:30;24.47;;;1.67;;
2772;SDS011;1394;47.044;15.744;2023-06-14T10:23:02;24.10;;;1.57;;
2772;SDS011;1394;47.044;15.744;2023-06-14T10:25:31;24.20;;;1.50;;
2772;SDS011;1394;47.044;15.744;2023-06-14T10:28:14;24.40;;;1.70;;
2772;SDS011;1394;47.044;15.744;2023-06-14T10:33:27;25.40;;;1.63;;
2772;SDS011;1394;47.044;15.744;2023-06-14T10:36:06;24.30;;;1.63;;
2772;SDS011;1394;47.044;15.744;2023-06-14T10:38:33;24.47;;;1.47;;
2772;SDS011;1394;47.044;15.744;2023-06-14T10:41:02;24.10;;;1.47;;
2772;SDS011;1394;47.044;15.744;2023-06-14T10:43:30;24.67;;;1.53;;
2772;SDS011;1394;47.044;15.744;2023-06-14T10:46:16;24.13;;;1.53;;
2772;SDS011;1394;47.044;15.744;2023-06-14T10:48:49;24.30;;;1.60;;
2772;SDS011;1394;47.044;15.744;2023-06-14T10:51:24;24.67;;;1.50;;
2772;SDS011;1394;47.044;15.744;2023-06-14T10:53:58;24.73;;;1.53;;
2772;SDS011;1394;47.044;15.744;2023-06-14T10:56:29;24.93;;;1.60;;
2772;SDS011;1394;47.044;15.744;2023-06-14T10:58:57;24.73;;;1.33;;
2772;SDS011;1394;47.044;15.744;2023-06-14T11:01:29;24.40;;;1.60;;
2772;SDS011;1394;47.044;15.744;2023-06-14T11:04:04;24.40;;;1.53;;
2772;SDS011;1394;47.044;15.744;2023-06-14T11:06:41;24.67;;;1.73;;
2772;SDS011;1394;47.044;15.744;2023-06-14T11:09:20;25.30;;;1.80;;
2772;SDS011;1394;47.044;15.744;2023-06-14T11:11:54;24.40;;;1.30;;
2772;SDS011;1394;47.044;15.744;2023-06-14T11:14:22;24.50;;;1.60;;
2772;SDS011;1394;47.044;15.744;2023-06-14T11:16:50;24.20;;;1.20;;
2772;SDS011;1394;47.044;15.744;2023-06-14T11:19:18;24.97;;;1.50;;
2772;SDS011;1394;47.044;15.744;2023-06-14T11:21:47;24.30;;;1.40;;
2772;SDS011;1394;47.044;15.744;2023-06-14T11:24:16;24.80;;;1.60;;
2772;SDS011;1394;47.044;15.744;2023-06-14T11:26:46;24.50;;;1.40;;
2772;SDS011;1394;47.044;15.744;2023-06-14T11:29:14;24.57;;;1.50;;
2772;SDS011;1394;47.044;15.744;2023-06-14T11:31:43;24.40;;;1.50;;
2772;SDS011;1394;47.044;15.744;2023-06-14T11:34:13;24.67;;;1.60;;
2772;SDS011;1394;47.044;15.744;2023-06-14T11:36:42;24.70;;;1.50;;
2772;SDS011;1394;47.044;15.744;2023-06-14T11:39:12;24.87;;;1.50;;
2772;SDS011;1394;47.044;15.744;2023-06-14T11:41:40;24.47;;;1.47;;
2772;SDS011;1394;47.044;15.744;2023-06-14T11:44:07;24.53;;;1.33;;
2772;SDS011;1394;47.044;15.744;2023-06-14T11:46:34;26.40;;;1.47;;
2772;SDS011;1394;47.044;15.744;2023-06-14T11:49:03;24.50;;;1.30;;
2772;SDS011;1394;47.044;15.744;2023-06-14T11:51:34;24.83;;;1.57;;
2772;SDS011;1394;47.044;15.744;2023-06-14T11:54:05;24.90;;;1.40;;
2772;SDS011;1394;47.044;15.744;2023-06-14T11:56:36;24.70;;;1.30;;
2772;SDS011;1394;47.044;15.744;2023-06-14T11:59:04;25.60;;;1.53;;
2772;SDS011;1394;47.044;15.744;2023-06-14T12:01:36;24.90;;;1.60;;
2772;SDS011;1394;47.044;15.744;2023-06-14T12:04:04;27.23;;;1.30;;
2772;SDS011;1394;47.044;15.744;2023-06-14T12:06:33;24.93;;;1.40;;
2772;SDS011;1394;47.044;15.744;2023-06-14T12:09:06;24.93;;;1.37;;
2772;SDS011;1394;47.044;15.744;2023-06-14T12:11:42;25.17;;;1.30;;
2772;SDS011;1394;47.044;15.744;2023-06-14T12:14:09;24.50;;;1.27;;
2772;SDS011;1394;47.044;15.744;2023-06-14T12:16:37;25.23;;;1.60;;
2772;SDS011;1394;47.044;15.744;2023-06-14T12:19:11;25.03;;;1.30;;
2772;SDS011;1394;47.044;15.744;2023-06-14T12:21:39;25.07;;;1.30;;
2772;SDS011;1394;47.044;15.744;2023-06-14T12:24:09;24.60;;;1.20;;
2772;SDS011;1394;47.044;15.744;2023-06-14T12:26:41;24.67;;;1.20;;
2772;SDS011;1394;47.044;15.744;2023-06-14T12:29:08;25.10;;;1.27;;
2772;SDS011;1394;47.044;15.744;2023-06-14T12:31:38;25.77;;;1.40;;
2772;SDS011;1394;47.044;15.744;2023-06-14T12:34:05;24.67;;;1.20;;
2772;SDS011;1394;47.044;15.744;2023-06-14T12:36:36;25.37;;;1.20;;
2772;SDS011;1394;47.044;15.744;2023-06-14T12:39:09;24.57;;;1.20;;
2772;SDS011;1394;47.044;15.744;2023-06-14T12:41:37;24.83;;;1.13;;
2772;SDS011;1394;47.044;15.744;2023-06-14T12:44:06;25.23;;;1.30;;
2772;SDS011;1394;47.044;15.744;2023-06-14T12:46:34;24.67;;;1.30;;
2772;SDS011;1394;47.044;15.744;2023-06-14T12:49:04;24.77;;;1.20;;
2772;SDS011;1394;47.044;15.744;2023-06-14T12:51:32;24.70;;;1.13;;
2772;SDS011;1394;47.044;15.744;2023-06-14T12:53:59;24.80;;;1.10;;
2772;SDS011;1394;47.044;15.744;2023-06-14T12:56:28;24.70;;;1.20;;
2772;SDS011;1394;47.044;15.744;2023-06-14T12:58:56;24.70;;;1.10;;
2772;SDS011;1394;47.044;15.744;2023-06-14T13:01:28;25.10;;;1.50;;
2772;SDS011;1394;47.044;15.744;2023-06-14T13:03:55;24.97;;;1.43;;
2772;SDS011;1394;47.044;15.744;2023-06-14T13:06:24;24.70;;;1.30;;
2772;SDS011;1394;47.044;15.744;2023-06-14T13:08:53;24.73;;;1.10;;
2772;SDS011;1394;47.044;15.744;2023-06-14T13:11:22;24.77;;;1.20;;
2772;SDS011;1394;47.044;15.744;2023-06-14T13:13:51;24.93;;;1.10;;
2772;SDS011;1394;47.044;15.744;2023-06-14T13:16:20;25.00;;;1.20;;
2772;SDS011;1394;47.044;15.744;2023-06-14T13:18:49;24.87;;;1.17;;
2772;SDS011;1394;47.044;15.744;2023-06-14T13:21:16;24.60;;;1.10;;
2772;SDS011;1394;47.044;15.744;2023-06-14T13:23:48;25.00;;;1.10;;
2772;SDS011;1394;47.044;15.744;2023-06-14T13:26:15;24.47;;;1.07;;
2772;SDS011;1394;47.044;15.744;2023-06-14T13:28:45;24.90;;;1.13;;
2772;SDS011;1394;47.044;15.744;2023-06-14T13:31:13;24.67;;;1.10;;
2772;SDS011;1394;47.044;15.744;2023-06-14T13:33:41;24.43;;;1.03;;
2772;SDS011;1394;47.044;15.744;2023-06-14T13:36:08;24.90;;;1.30;;
2772;SDS011;1394;47.044;15.744;2023-06-14T13:38:35;25.37;;;1.27;;
2772;SDS011;1394;47.044;15.744;2023-06-14T13:41:05;24.30;;;1.00;;
2772;SDS011;1394;47.044;15.744;2023-06-14T13:43:35;24.40;;;0.97;;
2772;SDS011;1394;47.044;15.744;2023-06-14T13:46:02;25.10;;;1.30;;
2772;SDS011;1394;47.044;15.744;2023-06-14T13:48:30;24.60;;;1.13;;
2772;SDS011;1394;47.044;15.744;2023-06-14T13:50:59;25.47;;;1.10;;
2772;SDS011;1394;47.044;15.744;2023-06-14T13:53:29;24.80;;;1.20;;
2772;SDS011;1394;47.044;15.744;2023-06-14T13:55:56;24.90;;;1.30;;
2772;SDS011;1394;47.044;15.744;2023-06-14T13:58:25;24.80;;;1.30;;
2772;SDS011;1394;47.044;15.744;2023-06-14T14:00:52;25.00;;;1.20;;
2772;SDS011;1394;47.044;15.744;2023-06-14T14:03:20;24.70;;;1.20;;
2772;SDS011;1394;47.044;15.744;2023-06-14T14:05:50;25.80;;;1.30;;
2772;SDS011;1394;47.044;15.744;2023-06-14T14:08:18;24.60;;;1.30;;
2772;SDS011;1394;47.044;15.744;2023-06-14T14:10:45;24.67;;;1.20;;
2772;SDS011;1394;47.044;15.744;2023-06-14T14:13:12;24.67;;;1.30;;
2772;SDS011;1394;47.044;15.744;2023-06-14T14:15:40;24.50;;;1.10;;
2772;SDS011;1394;47.044;15.744;2023-06-14T14:18:07;25.43;;;1.23;;
2772;SDS011;1394;47.044;15.744;2023-06-14T14:20:35;25.13;;;1.27;;
2772;SDS011;1394;47.044;15.744;2023-06-14T14:23:04;24.50;;;1.10;;
2772;SDS011;1394;47.044;15.744;2023-06-14T14:25:31;24.70;;;1.13;;
2772;SDS011;1394;47.044;15.744;2023-06-14T14:27:59;24.50;;;1.20;;
2772;SDS011;1394;47.044;15.744;2023-06-14T14:30:26;24.50;;;1.10;;
2772;SDS011;1394;47.044;15.744;2023-06-14T14:32:54;25.77;;;1.30;;
2772;SDS011;1394;47.044;15.744;2023-06-14T14:35:21;24.40;;;1.03;;
2772;SDS011;1394;47.044;15.744;2023-06-14T14:37:51;24.60;;;1.13;;
2772;SDS011;1394;47.044;15.744;2023-06-14T14:40:20;24.73;;;1.17;;
2772;SDS011;1394;47.044;15.744;2023-06-14T14:42:47;24.90;;;1.10;;
2772;SDS011;1394;47.044;15.744;2023-06-14T14:45:15;24.60;;;1.17;;
2772;SDS011;1394;47.044;15.744;2023-06-14T14:47:43;24.60;;;1.30;;
2772;SDS011;1394;47.044;15.744;2023-06-14T14:50:13;24.80;;;1.40;;
2772;SDS011;1394;47.044;15.744;2023-06-14T14:52:41;24.87;;;1.40;;
2772;SDS011;1394;47.044;15.744;2023-06-14T14:55:09;24.90;;;1.30;;
2772;SDS011;1394;47.044;15.744;2023-06-14T14:57:38;24.70;;;1.30;;
2772;SDS011;1394;47.044;15.744;2023-06-14T15:00:08;24.67;;;1.23;;
2772;SDS011;1394;47.044;15.744;2023-06-14T15:02:35;24.93;;;1.60;;
2772;SDS011;1394;47.044;15.744;2023-06-14T15:05:02;24.70;;;1.20;;
2772;SDS011;1394;47.044;15.744;2023-06-14T15:07:33;24.50;;;1.10;;
2772;SDS011;1394;47.044;15.744;2023-06-14T15:10:00;24.30;;;1.20;;
2772;SDS011;1394;47.044;15.744;2023-06-14T15:12:30;25.00;;;1.30;;
2772;SDS011;1394;47.044;15.744;2023-06-14T15:15:02;25.33;;;1.57;;
2772;SDS011;1394;47.044;15.744;2023-06-14T15:17:29;25.70;;;1.40;;
2772;SDS011;1394;47.044;15.744;2023-06-14T15:19:57;24.50;;;1.20;;
2772;SDS011;1394;47.044;15.744;2023-06-14T15:22:28;24.57;;;1.30;;
2772;SDS011;1394;47.044;15.744;2023-06-14T15:24:58;24.40;;;1.20;;
2772;SDS011;1394;47.044;15.744;2023-06-14T15:27:26;24.60;;;1.30;;
2772;SDS011;1394;47.044;15.744;2023-06-14T15:29:53;24.40;;;1.10;;
2772;SDS011;1394;47.044;15.744;2023-06-14T15:32:22;24.90;;;1.60;;
2772;SDS011;1394;47.044;15.744;2023-06-14T15:34:50;24.60;;;1.30;;